createdAt,value
2018-09-22T00:00:45.536Z,90.39
2018-09-22T00:01:45.514Z,91.06
2018-09-22T00:02:45.414Z,90.20
2018-09-22T00:03:45.353Z,90.30
2018-09-22T00:04:45.290Z,91.44
2018-09-22T00:05:45.230Z,91.73
2018-09-22T00:06:45.166Z,90.67
2018-09-22T00:07:45.105Z,90.67
2018-09-22T00:08:45.044Z,90.20
2018-09-22T00:09:44.985Z,90.01
2018-09-22T00:10:44.923Z,90.67
2018-09-22T00:11:44.866Z,90.30
2018-09-22T00:12:44.799Z,89.91
2018-09-22T00:13:44.741Z,90.01
2018-09-22T00:14:44.678Z,90.10
2018-09-22T00:15:44.616Z,89.72
2018-09-22T00:16:44.554Z,89.62
2018-09-22T00:17:44.498Z,90.77
2018-09-22T00:18:44.432Z,90.48
2018-09-22T00:19:44.369Z,90.58
2018-09-22T00:20:44.309Z,89.72
2018-09-22T00:21:44.306Z,89.81
2018-09-22T00:22:44.187Z,90.30
2018-09-22T00:23:44.124Z,90.01
2018-09-22T00:24:44.064Z,91.92
2018-09-22T00:25:44.004Z,91.20
2018-09-22T00:26:43.941Z,90.53
2018-09-22T00:27:43.877Z,89.87
2018-09-22T00:28:43.817Z,90.58
2018-09-22T00:29:43.757Z,90.63
2018-09-22T00:30:43.696Z,91.68
2018-09-22T00:31:43.636Z,91.78
2018-09-22T00:32:43.572Z,91.39
2018-09-22T00:33:43.512Z,91.39
2018-09-22T00:34:43.451Z,91.49
2018-09-22T00:35:43.388Z,91.78
2018-09-22T00:36:43.327Z,91.59
2018-09-22T00:37:43.264Z,92.45
2018-09-22T00:38:43.204Z,92.40
2018-09-22T00:39:43.143Z,91.78
2018-09-22T00:40:43.080Z,92.45
2018-09-22T00:41:43.020Z,92.83
2018-09-22T00:42:42.956Z,93.12
2018-09-22T00:43:42.894Z,92.54
2018-09-22T00:44:42.835Z,92.45
2018-09-22T00:45:42.772Z,92.45
2018-09-22T00:46:42.711Z,93.02
2018-09-22T00:47:42.651Z,91.97
2018-09-22T00:48:42.589Z,92.25
2018-09-22T00:49:42.527Z,92.07
2018-09-22T00:50:42.466Z,93.12
2018-09-22T00:51:42.403Z,93.31
2018-09-22T00:52:42.342Z,92.93
2018-09-22T00:53:42.282Z,92.35
2018-09-22T00:54:42.224Z,92.16
2018-09-22T00:55:42.159Z,92.07
2018-09-22T00:56:42.098Z,91.59
2018-09-22T00:57:42.036Z,91.97
2018-09-22T00:58:41.974Z,92.93
2018-09-22T00:59:41.914Z,93.60
2018-09-22T01:00:41.854Z,93.50
2018-09-22T01:01:41.789Z,92.83
2018-09-22T01:02:41.730Z,93.79
2018-09-22T01:03:41.666Z,93.69
2018-09-22T01:04:41.605Z,93.69
2018-09-22T01:05:41.542Z,94.36
2018-09-22T01:06:41.483Z,93.88
2018-09-22T01:07:41.419Z,93.02
2018-09-22T01:08:41.366Z,92.35
2018-09-22T01:09:41.313Z,93.21
2018-09-22T01:10:41.319Z,92.93
2018-09-22T01:11:41.178Z,93.40
2018-09-22T01:12:41.159Z,93.88
2018-09-22T01:13:41.054Z,92.93
2018-09-22T01:14:40.989Z,93.79
2018-09-22T01:15:40.947Z,94.36
2018-09-22T01:16:40.873Z,94.07
2018-09-22T01:17:40.813Z,94.55
2018-09-22T01:18:40.744Z,93.98
2018-09-22T01:19:40.682Z,93.79
2018-09-22T01:20:40.620Z,93.50
2018-09-22T01:21:40.559Z,94.36
2018-09-22T01:22:40.499Z,94.36
2018-09-22T01:23:40.436Z,93.98
2018-09-22T01:24:40.375Z,94.17
2018-09-22T01:25:40.314Z,93.12
2018-09-22T01:26:40.254Z,93.40
2018-09-22T01:27:40.187Z,95.12
2018-09-22T01:28:40.131Z,94.84
2018-09-22T01:29:40.073Z,94.60
2018-09-22T01:30:40.010Z,94.98
2018-09-22T01:31:39.942Z,94.74
2018-09-22T01:32:39.890Z,94.60
2018-09-22T01:33:39.821Z,94.89
2018-09-22T01:34:39.759Z,94.70
2018-09-22T01:35:39.698Z,95.17
2018-09-22T01:36:39.636Z,93.69
2018-09-22T01:37:39.579Z,94.89
2018-09-22T01:38:39.516Z,94.89
2018-09-22T01:39:39.451Z,94.51
2018-09-22T01:40:39.389Z,94.89
2018-09-22T01:41:39.328Z,94.51
2018-09-22T01:42:39.264Z,96.42
2018-09-22T01:43:39.209Z,96.13
2018-09-22T01:44:39.145Z,95.17
2018-09-22T01:45:39.083Z,95.27
2018-09-22T01:46:39.019Z,94.31
2018-09-22T01:47:38.957Z,95.17
2018-09-22T01:48:38.898Z,95.17
2018-09-22T01:49:38.835Z,95.27
2018-09-22T01:50:38.776Z,94.51
2018-09-22T01:51:38.713Z,95.36
2018-09-22T01:52:38.653Z,95.07
2018-09-22T01:53:38.589Z,96.32
2018-09-22T01:54:38.525Z,95.46
2018-09-22T01:55:38.467Z,95.84
2018-09-22T01:56:38.455Z,95.46
2018-09-22T01:57:38.343Z,96.32
2018-09-22T01:58:38.281Z,96.51
2018-09-22T01:59:38.215Z,95.46
2018-09-22T02:00:38.161Z,96.80
2018-09-22T02:01:38.098Z,96.70
2018-09-22T02:02:38.036Z,97.28
2018-09-22T02:03:37.971Z,96.22
2018-09-22T02:04:37.911Z,96.13
2018-09-22T02:05:37.845Z,95.94
2018-09-22T02:06:37.790Z,96.32
2018-09-22T02:07:37.723Z,97.28
2018-09-22T02:08:37.663Z,95.84
2018-09-22T02:09:37.602Z,96.61
2018-09-22T02:10:37.578Z,95.65
2018-09-22T02:11:37.477Z,95.17
2018-09-22T02:12:37.417Z,94.89
2018-09-22T02:13:37.357Z,93.45
2018-09-22T02:14:37.290Z,93.93
2018-09-22T02:15:37.228Z,94.02
2018-09-22T02:16:37.166Z,94.51
2018-09-22T02:17:37.109Z,95.46
2018-09-22T02:18:37.045Z,95.46
2018-09-22T02:19:36.994Z,95.46
2018-09-22T02:20:36.923Z,95.36
2018-09-22T02:21:36.863Z,95.17
2018-09-22T02:22:36.800Z,94.31
2018-09-22T02:23:36.772Z,94.89
2018-09-22T02:24:36.681Z,95.17
2018-09-22T02:25:36.617Z,95.07
2018-09-22T02:26:36.552Z,95.75
2018-09-22T02:27:36.490Z,96.03
2018-09-22T02:28:36.428Z,95.46
2018-09-22T02:29:36.368Z,95.17
2018-09-22T02:30:36.307Z,95.27
2018-09-22T02:31:36.240Z,94.98
2018-09-22T02:32:36.183Z,94.22
2018-09-22T02:33:36.118Z,94.41
2018-09-22T02:34:36.061Z,95.27
2018-09-22T02:35:35.997Z,96.13
2018-09-22T02:36:35.935Z,95.75
2018-09-22T02:37:35.869Z,95.94
2018-09-22T02:38:35.813Z,96.32
2018-09-22T02:39:35.749Z,96.17
2018-09-22T02:40:35.688Z,97.08
2018-09-22T02:41:35.622Z,97.23
2018-09-22T02:42:35.562Z,96.61
2018-09-22T02:43:35.502Z,96.51
2018-09-22T02:44:35.439Z,96.61
2018-09-22T02:45:35.380Z,97.28
2018-09-22T02:46:35.316Z,97.08
2018-09-22T02:47:35.253Z,96.61
2018-09-22T02:48:35.191Z,95.07
2018-09-22T02:49:35.126Z,94.89
2018-09-22T02:50:35.067Z,95.27
2018-09-22T02:51:35.005Z,94.60
2018-09-22T02:52:34.949Z,95.46
2018-09-22T02:53:34.883Z,94.89
2018-09-22T02:54:34.827Z,94.31
2018-09-22T02:55:34.759Z,94.41
2018-09-22T02:56:34.702Z,93.65
2018-09-22T02:57:34.635Z,93.93
2018-09-22T02:58:34.578Z,94.22
2018-09-22T02:59:34.512Z,94.12
2018-09-22T03:00:34.464Z,94.02
2018-09-22T03:01:34.388Z,93.74
2018-09-22T03:02:34.327Z,95.36
2018-09-22T03:03:34.264Z,95.07
2018-09-22T03:04:34.208Z,94.60
2018-09-22T03:05:34.140Z,94.60
2018-09-22T03:06:34.129Z,95.84
2018-09-22T03:07:34.018Z,95.94
2018-09-22T03:08:33.989Z,95.17
2018-09-22T03:09:33.905Z,94.31
2018-09-22T03:10:33.831Z,94.89
2018-09-22T03:11:33.771Z,94.31
2018-09-22T03:12:33.708Z,95.27
2018-09-22T03:13:33.645Z,95.46
2018-09-22T03:14:33.588Z,94.12
2018-09-22T03:15:33.630Z,94.70
2018-09-22T03:16:33.461Z,95.22
2018-09-22T03:17:33.398Z,96.08
2018-09-22T03:18:33.337Z,96.08
2018-09-22T03:19:33.277Z,95.70
2018-09-22T03:20:33.220Z,96.84
2018-09-22T03:21:33.153Z,96.17
2018-09-22T03:22:33.093Z,97.03
2018-09-22T03:23:33.025Z,96.27
2018-09-22T03:24:32.970Z,95.51
2018-09-22T03:25:32.904Z,95.98
2018-09-22T03:26:32.848Z,96.27
2018-09-22T03:27:32.783Z,96.27
2018-09-22T03:28:32.719Z,95.79
2018-09-22T03:29:32.653Z,94.74
2018-09-22T03:30:32.611Z,94.93
2018-09-22T03:31:32.532Z,95.12
2018-09-22T03:32:32.482Z,95.98
2018-09-22T03:33:32.411Z,95.32
2018-09-22T03:34:32.349Z,95.79
2018-09-22T03:35:32.285Z,95.32
2018-09-22T03:36:32.223Z,95.79
2018-09-22T03:37:32.163Z,95.98
2018-09-22T03:38:32.098Z,96.46
2018-09-22T03:39:32.038Z,96.08
2018-09-22T03:40:31.974Z,96.66
2018-09-22T03:41:31.914Z,96.56
2018-09-22T03:42:31.852Z,95.41
2018-09-22T03:43:31.791Z,96.08
2018-09-22T03:44:31.728Z,96.17
2018-09-22T03:45:31.666Z,95.98
2018-09-22T03:46:31.603Z,95.98
2018-09-22T03:47:31.541Z,97.03
2018-09-22T03:48:31.480Z,97.23
2018-09-22T03:49:31.419Z,96.27
2018-09-22T03:50:31.359Z,96.46
2018-09-22T03:51:31.294Z,96.75
2018-09-22T03:52:31.233Z,95.61
2018-09-22T03:53:31.172Z,96.27
2018-09-22T03:54:31.111Z,95.89
2018-09-22T03:55:31.052Z,95.89
2018-09-22T03:56:30.985Z,95.41
2018-09-22T03:57:30.922Z,95.79
2018-09-22T03:58:30.858Z,95.22
2018-09-22T03:59:30.801Z,94.84
2018-09-22T04:00:30.758Z,95.51
2018-09-22T04:01:30.676Z,95.12
2018-09-22T04:02:30.611Z,96.08
2018-09-22T04:03:30.550Z,94.84
2018-09-22T04:04:30.488Z,94.74
2018-09-22T04:05:30.425Z,94.74
2018-09-22T04:06:30.364Z,95.41
2018-09-22T04:07:30.302Z,94.84
2018-09-22T04:08:30.239Z,95.61
2018-09-22T04:09:30.188Z,95.03
2018-09-22T04:10:30.119Z,95.79
2018-09-22T04:11:30.053Z,96.56
2018-09-22T04:12:29.993Z,96.27
2018-09-22T04:13:29.930Z,96.17
2018-09-22T04:14:29.867Z,96.27
2018-09-22T04:15:29.806Z,96.27
2018-09-22T04:16:29.748Z,96.17
2018-09-22T04:17:29.686Z,96.66
2018-09-22T04:18:29.619Z,96.27
2018-09-22T04:19:29.561Z,96.46
2018-09-22T04:20:29.493Z,96.08
2018-09-22T04:21:29.434Z,95.89
2018-09-22T04:22:29.373Z,94.84
2018-09-22T04:23:29.307Z,94.65
2018-09-22T04:24:29.248Z,95.12
2018-09-22T04:25:29.187Z,94.74
2018-09-22T04:26:29.124Z,94.74
2018-09-22T04:27:29.063Z,95.22
2018-09-22T04:28:28.999Z,96.08
2018-09-22T04:29:28.937Z,96.17
2018-09-22T04:30:28.874Z,96.37
2018-09-22T04:31:28.810Z,95.61
2018-09-22T04:32:28.749Z,95.03
2018-09-22T04:33:28.754Z,95.98
2018-09-22T04:34:28.629Z,96.13
2018-09-22T04:35:28.568Z,95.61
2018-09-22T04:36:28.504Z,95.75
2018-09-22T04:37:28.439Z,95.84
2018-09-22T04:38:28.380Z,95.94
2018-09-22T04:39:28.319Z,94.93
2018-09-22T04:40:28.259Z,95.36
2018-09-22T04:41:28.194Z,95.27
2018-09-22T04:42:28.133Z,95.84
2018-09-22T04:43:28.072Z,95.36
2018-09-22T04:44:28.007Z,95.08
2018-09-22T04:45:27.945Z,95.94
2018-09-22T04:46:27.884Z,94.89
2018-09-22T04:47:27.823Z,96.22
2018-09-22T04:48:27.755Z,95.17
2018-09-22T04:49:27.698Z,95.56
2018-09-22T04:50:27.633Z,95.94
2018-09-22T04:51:27.573Z,96.13
2018-09-22T04:52:27.511Z,95.08
2018-09-22T04:53:27.448Z,94.60
2018-09-22T04:54:27.385Z,94.98
2018-09-22T04:55:27.321Z,94.93
2018-09-22T04:56:27.263Z,95.36
2018-09-22T04:57:27.204Z,95.17
2018-09-22T04:58:27.137Z,95.27
2018-09-22T04:59:27.076Z,94.79
2018-09-22T05:00:27.015Z,95.36
2018-09-22T05:01:26.952Z,94.60
2018-09-22T05:02:26.893Z,94.12
2018-09-22T05:03:26.827Z,93.65
2018-09-22T05:04:26.765Z,93.93
2018-09-22T05:05:26.704Z,94.89
2018-09-22T05:06:26.641Z,95.08
2018-09-22T05:07:26.583Z,95.36
2018-09-22T05:08:26.517Z,94.79
2018-09-22T05:09:26.454Z,95.27
2018-09-22T05:10:26.392Z,95.17
2018-09-22T05:11:26.332Z,95.27
2018-09-22T05:12:26.269Z,95.65
2018-09-22T05:13:26.209Z,95.27
2018-09-22T05:14:26.147Z,94.79
2018-09-22T05:15:26.080Z,96.42
2018-09-22T05:16:26.017Z,96.61
2018-09-22T05:17:25.962Z,95.65
2018-09-22T05:18:25.896Z,96.13
2018-09-22T05:19:25.833Z,96.32
2018-09-22T05:20:25.772Z,95.17
2018-09-22T05:21:25.714Z,95.65
2018-09-22T05:22:25.648Z,95.75
2018-09-22T05:23:25.587Z,95.36
2018-09-22T05:24:25.523Z,96.42
2018-09-22T05:25:25.464Z,96.42
2018-09-22T05:26:25.401Z,95.65
2018-09-22T05:27:25.340Z,95.84
2018-09-22T05:28:25.276Z,96.32
2018-09-22T05:29:25.211Z,95.36
2018-09-22T05:30:25.152Z,96.32
2018-09-22T05:31:25.088Z,96.42
2018-09-22T05:32:25.027Z,96.13
2018-09-22T05:33:25.019Z,95.94
2018-09-22T05:34:24.902Z,96.22
2018-09-22T05:35:24.900Z,96.22
2018-09-22T05:36:24.779Z,94.79
2018-09-22T05:37:24.717Z,96.51
2018-09-22T05:38:24.654Z,96.13
2018-09-22T05:39:24.590Z,95.36
2018-09-22T05:40:24.530Z,95.36
2018-09-22T05:41:24.469Z,95.84
2018-09-22T05:42:24.406Z,95.94
2018-09-22T05:43:24.343Z,95.27
2018-09-22T05:44:24.279Z,93.74
2018-09-22T05:45:24.221Z,94.89
2018-09-22T05:46:24.162Z,95.27
2018-09-22T05:47:24.095Z,94.03
2018-09-22T05:48:24.034Z,95.08
2018-09-22T05:49:23.971Z,94.98
2018-09-22T05:50:23.909Z,95.08
2018-09-22T05:51:23.845Z,94.60
2018-09-22T05:52:23.784Z,95.27
2018-09-22T05:53:23.723Z,95.36
2018-09-22T05:54:23.659Z,95.27
2018-09-22T05:55:23.597Z,94.60
2018-09-22T05:56:23.536Z,93.55
2018-09-22T05:57:23.475Z,95.79
2018-09-22T05:58:23.410Z,95.84
2018-09-22T05:59:23.348Z,95.08
2018-09-22T06:00:23.288Z,94.70
2018-09-22T06:01:23.227Z,95.17
2018-09-22T06:02:23.166Z,95.08
2018-09-22T06:03:23.108Z,95.84
2018-09-22T06:04:23.038Z,94.98
2018-09-22T06:05:22.982Z,95.08
2018-09-22T06:06:22.916Z,94.36
2018-09-22T06:07:22.853Z,94.65
2018-09-22T06:08:22.793Z,95.03
2018-09-22T06:09:22.734Z,94.07
2018-09-22T06:10:22.676Z,94.07
2018-09-22T06:11:22.606Z,94.07
2018-09-22T06:12:22.543Z,94.17
2018-09-22T06:13:22.483Z,94.27
2018-09-22T06:14:22.419Z,93.60
2018-09-22T06:15:22.359Z,93.41
2018-09-22T06:16:22.298Z,93.60
2018-09-22T06:17:22.236Z,92.26
2018-09-22T06:18:22.168Z,92.64
2018-09-22T06:19:22.111Z,93.31
2018-09-22T06:20:22.047Z,92.93
2018-09-22T06:21:21.986Z,93.31
2018-09-22T06:22:21.923Z,92.36
2018-09-22T06:23:21.862Z,93.12
2018-09-22T06:24:21.846Z,92.64
2018-09-22T06:25:21.737Z,92.55
2018-09-22T06:26:21.672Z,93.12
2018-09-22T06:27:21.613Z,92.45
2018-09-22T06:28:21.551Z,91.97
2018-09-22T06:29:21.484Z,91.69
2018-09-22T06:30:21.427Z,92.55
2018-09-22T06:31:21.365Z,92.26
2018-09-22T06:32:21.301Z,92.45
2018-09-22T06:33:21.240Z,92.26
2018-09-22T06:34:21.176Z,92.55
2018-09-22T06:35:21.117Z,92.45
2018-09-22T06:36:21.059Z,91.78
2018-09-22T06:37:21.004Z,91.50
2018-09-22T06:38:20.930Z,92.45
2018-09-22T06:39:20.869Z,92.45
2018-09-22T06:40:20.807Z,91.30
2018-09-22T06:41:20.747Z,92.45
2018-09-22T06:42:20.684Z,92.55
2018-09-22T06:43:20.623Z,91.83
2018-09-22T06:44:20.560Z,92.11
2018-09-22T06:45:20.496Z,92.02
2018-09-22T06:46:20.501Z,91.64
2018-09-22T06:47:20.372Z,92.02
2018-09-22T06:48:20.313Z,92.11
2018-09-22T06:49:20.256Z,91.74
2018-09-22T06:50:20.190Z,91.54
2018-09-22T06:51:20.124Z,91.25
2018-09-22T06:52:20.062Z,90.49
2018-09-22T06:53:20.002Z,89.92
2018-09-22T06:54:19.941Z,90.59
2018-09-22T06:55:19.877Z,90.68
2018-09-22T06:56:19.814Z,89.63
2018-09-22T06:57:19.759Z,89.82
2018-09-22T06:58:19.692Z,89.34
2018-09-22T06:59:19.633Z,89.01
2018-09-22T07:00:19.570Z,89.10
2018-09-22T07:01:19.510Z,88.15
2018-09-22T07:02:19.443Z,89.29
2018-09-22T07:03:19.385Z,89.01
2018-09-22T07:04:19.323Z,88.62
2018-09-22T07:05:19.261Z,89.48
2018-09-22T07:06:19.219Z,89.77
2018-09-22T07:07:19.136Z,89.10
2018-09-22T07:08:19.077Z,88.43
2018-09-22T07:09:19.013Z,88.43
2018-09-22T07:10:18.951Z,89.10
2018-09-22T07:11:18.890Z,88.24
2018-09-22T07:12:18.829Z,88.05
2018-09-22T07:13:18.767Z,88.53
2018-09-22T07:14:18.703Z,88.81
2018-09-22T07:15:18.643Z,88.24
2018-09-22T07:16:18.583Z,87.66
2018-09-22T07:17:18.519Z,87.95
2018-09-22T07:18:18.503Z,87.76
2018-09-22T07:19:18.396Z,87.66
2018-09-22T07:20:18.335Z,87.48
2018-09-22T07:21:18.273Z,87.76
2018-09-22T07:22:18.210Z,87.57
2018-09-22T07:23:18.148Z,87.29
2018-09-22T07:24:18.088Z,87.19
2018-09-22T07:25:18.048Z,87.57
2018-09-22T07:26:17.959Z,87.19
2018-09-22T07:27:17.905Z,86.61
2018-09-22T07:28:17.842Z,86.71
2018-09-22T07:29:17.782Z,87.57
2018-09-22T07:30:17.717Z,87.09
2018-09-22T07:31:17.664Z,86.61
2018-09-22T07:32:17.597Z,86.90
2018-09-22T07:33:17.534Z,85.94
2018-09-22T07:34:17.471Z,86.37
2018-09-22T07:35:17.410Z,86.33
2018-09-22T07:36:17.357Z,86.66
2018-09-22T07:37:17.287Z,86.66
2018-09-22T07:38:17.224Z,86.37
2018-09-22T07:39:17.182Z,86.57
2018-09-22T07:40:17.104Z,86.37
2018-09-22T07:41:17.043Z,86.08
2018-09-22T07:42:16.979Z,86.37
2018-09-22T07:43:16.920Z,85.80
2018-09-22T07:44:16.859Z,84.84
2018-09-22T07:45:16.800Z,85.03
2018-09-22T07:46:16.732Z,85.13
2018-09-22T07:47:16.678Z,85.32
2018-09-22T07:48:16.611Z,84.55
2018-09-22T07:49:16.552Z,85.13
2018-09-22T07:50:16.488Z,85.13
2018-09-22T07:51:16.428Z,84.79
2018-09-22T07:52:16.368Z,84.50
2018-09-22T07:53:16.305Z,83.73
2018-09-22T07:54:16.244Z,83.79
2018-09-22T07:55:16.182Z,84.36
2018-09-22T07:56:16.123Z,83.89
2018-09-22T07:57:16.135Z,83.12
2018-09-22T07:58:16.000Z,82.40
2018-09-22T07:59:15.938Z,82.01
2018-09-22T08:00:15.900Z,80.67
2018-09-22T08:01:15.817Z,80.87
2018-09-22T08:02:15.754Z,81.15
2018-09-22T08:03:15.691Z,80.19
2018-09-22T08:04:15.630Z,80.10
2018-09-22T08:05:15.569Z,81.05
2018-09-22T08:06:15.508Z,80.96
2018-09-22T08:07:15.447Z,80.43
2018-09-22T08:08:15.388Z,80.81
2018-09-22T08:09:15.325Z,80.81
2018-09-22T08:10:15.265Z,81.10
2018-09-22T08:11:15.204Z,81.05
2018-09-22T08:12:15.144Z,80.29
2018-09-22T08:13:15.081Z,80.48
2018-09-22T08:14:15.020Z,81.05
2018-09-22T08:15:14.959Z,80.14
2018-09-22T08:16:14.897Z,80.04
2018-09-22T08:17:14.836Z,79.95
2018-09-22T08:18:14.775Z,79.57
2018-09-22T08:19:14.713Z,80.14
2018-09-22T08:20:14.654Z,80.33
2018-09-22T08:21:14.593Z,79.75
2018-09-22T08:22:14.533Z,79.47
2018-09-22T08:23:14.471Z,78.80
2018-09-22T08:24:14.410Z,79.08
2018-09-22T08:25:14.373Z,79.18
2018-09-22T08:26:14.288Z,79.18
2018-09-22T08:27:14.224Z,79.47
2018-09-22T08:28:14.166Z,79.28
2018-09-22T08:29:14.106Z,79.18
2018-09-22T08:30:14.044Z,78.89
2018-09-22T08:31:13.983Z,78.80
2018-09-22T08:32:13.926Z,78.22
2018-09-22T08:33:13.862Z,78.42
2018-09-22T08:34:13.800Z,78.13
2018-09-22T08:35:13.742Z,77.78
2018-09-22T08:36:13.778Z,77.11
2018-09-22T08:37:13.676Z,77.97
2018-09-22T08:38:13.558Z,77.02
2018-09-22T08:39:13.496Z,75.96
2018-09-22T08:40:13.437Z,76.73
2018-09-22T08:41:13.375Z,76.82
2018-09-22T08:42:13.314Z,77.31
2018-09-22T08:43:13.258Z,76.35
2018-09-22T08:44:13.196Z,75.96
2018-09-22T08:45:13.134Z,76.92
2018-09-22T08:46:13.071Z,76.54
2018-09-22T08:47:13.010Z,76.35
2018-09-22T08:48:12.950Z,76.25
2018-09-22T08:49:12.892Z,75.48
2018-09-22T08:50:12.828Z,73.66
2018-09-22T08:51:12.805Z,73.66
2018-09-22T08:52:12.708Z,74.24
2018-09-22T08:53:12.649Z,74.82
2018-09-22T08:54:12.586Z,74.91
2018-09-22T08:55:12.527Z,74.24
2018-09-22T08:56:12.465Z,75.29
2018-09-22T08:57:12.406Z,74.62
2018-09-22T08:58:12.344Z,73.61
2018-09-22T08:59:12.283Z,72.55
2018-09-22T09:00:12.223Z,71.78
2018-09-22T09:01:12.162Z,72.07
2018-09-22T09:02:12.106Z,70.64
2018-09-22T09:03:12.040Z,71.31
2018-09-22T09:04:11.981Z,71.31
2018-09-22T09:05:11.954Z,69.96
2018-09-22T09:06:11.862Z,70.35
2018-09-22T09:07:11.801Z,71.15
2018-09-22T09:08:11.736Z,71.72
2018-09-22T09:09:11.683Z,71.63
2018-09-22T09:10:11.618Z,70.19
2018-09-22T09:11:11.558Z,70.19
2018-09-22T09:12:11.499Z,69.77
2018-09-22T09:13:11.493Z,69.29
2018-09-22T09:14:11.399Z,68.05
2018-09-22T09:15:11.318Z,68.24
2018-09-22T09:16:11.262Z,69.20
2018-09-22T09:17:11.257Z,70.06
2018-09-22T09:18:11.144Z,69.39
2018-09-22T09:19:11.078Z,69.48
2018-09-22T09:20:11.016Z,69.10
2018-09-22T09:21:10.956Z,68.14
2018-09-22T09:22:10.897Z,68.43
2018-09-22T09:23:10.834Z,67.38
2018-09-22T09:24:10.774Z,67.09
2018-09-22T09:25:10.719Z,67.95
2018-09-22T09:26:10.655Z,67.89
2018-09-22T09:27:10.594Z,68.08
2018-09-22T09:28:10.539Z,67.99
2018-09-22T09:29:10.473Z,67.89
2018-09-22T09:30:10.419Z,66.42
2018-09-22T09:31:10.355Z,67.09
2018-09-22T09:32:10.294Z,67.38
2018-09-22T09:33:10.234Z,66.99
2018-09-22T09:34:10.174Z,66.74
2018-09-22T09:35:10.115Z,67.79
2018-09-22T09:36:10.058Z,67.32
2018-09-22T09:37:09.994Z,67.99
2018-09-22T09:38:09.967Z,66.74
2018-09-22T09:39:09.922Z,65.59
2018-09-22T09:40:09.888Z,64.72
2018-09-22T09:41:09.754Z,65.46
2018-09-22T09:42:09.701Z,64.12
2018-09-22T09:43:09.648Z,64.53
2018-09-22T09:44:09.571Z,64.82
2018-09-22T09:45:09.513Z,64.15
2018-09-22T09:46:09.452Z,63.00
2018-09-22T09:47:09.390Z,62.90
2018-09-22T09:48:09.330Z,63.19
2018-09-22T09:49:09.270Z,62.62
2018-09-22T09:50:09.210Z,60.22
2018-09-22T09:51:09.154Z,61.18
2018-09-22T09:52:09.092Z,61.94
2018-09-22T09:53:09.030Z,62.42
2018-09-22T09:54:08.970Z,61.94
2018-09-22T09:55:08.910Z,62.04
2018-09-22T09:56:08.851Z,62.04
2018-09-22T09:57:08.792Z,61.78
2018-09-22T09:58:08.731Z,63.00
2018-09-22T09:59:08.673Z,62.13
2018-09-22T10:00:08.615Z,61.56
2018-09-22T10:01:08.550Z,61.59
2018-09-22T10:02:08.492Z,60.92
2018-09-22T10:03:08.430Z,61.69
2018-09-22T10:04:08.371Z,61.30
2018-09-22T10:05:08.311Z,61.11
2018-09-22T10:06:08.250Z,61.02
2018-09-22T10:07:08.191Z,61.98
2018-09-22T10:08:08.132Z,61.59
2018-09-22T10:09:08.072Z,61.11
2018-09-22T10:10:08.009Z,61.11
2018-09-22T10:11:07.953Z,61.59
2018-09-22T10:12:07.891Z,61.98
2018-09-22T10:13:07.833Z,61.11
2018-09-22T10:14:07.774Z,60.53
2018-09-22T10:15:07.714Z,61.49
2018-09-22T10:16:07.652Z,61.69
2018-09-22T10:17:07.593Z,62.13
2018-09-22T10:18:07.534Z,62.52
2018-09-22T10:19:07.474Z,62.62
2018-09-22T10:20:07.444Z,62.90
2018-09-22T10:21:07.355Z,63.76
2018-09-22T10:22:07.295Z,62.90
2018-09-22T10:23:07.234Z,63.09
2018-09-22T10:24:07.173Z,63.12
2018-09-22T10:25:07.111Z,62.65
2018-09-22T10:26:07.055Z,61.49
2018-09-22T10:27:06.995Z,62.07
2018-09-22T10:28:07.000Z,62.36
2018-09-22T10:29:06.876Z,62.45
2018-09-22T10:30:06.816Z,63.42
2018-09-22T10:31:06.757Z,62.93
2018-09-22T10:32:06.697Z,61.02
2018-09-22T10:33:06.636Z,62.07
2018-09-22T10:34:06.575Z,62.55
2018-09-22T10:35:06.516Z,62.26
2018-09-22T10:36:06.459Z,61.81
2018-09-22T10:37:06.394Z,62.01
2018-09-22T10:38:06.341Z,62.01
2018-09-22T10:39:06.284Z,61.91
2018-09-22T10:40:06.216Z,60.75
2018-09-22T10:41:06.160Z,61.05
2018-09-22T10:42:06.103Z,60.82
2018-09-22T10:43:06.038Z,61.30
2018-09-22T10:44:05.979Z,61.21
2018-09-22T10:45:05.921Z,61.59
2018-09-22T10:46:05.861Z,61.49
2018-09-22T10:47:05.801Z,61.30
2018-09-22T10:48:05.742Z,60.72
2018-09-22T10:49:05.682Z,60.63
2018-09-22T10:50:05.623Z,60.35
2018-09-22T10:51:05.564Z,60.53
2018-09-22T10:52:05.504Z,60.25
2018-09-22T10:53:05.557Z,60.38
2018-09-22T10:54:05.384Z,59.67
2018-09-22T10:55:05.323Z,60.18
2018-09-22T10:56:05.265Z,59.80
2018-09-22T10:57:05.205Z,60.05
2018-09-22T10:58:05.144Z,59.96
2018-09-22T10:59:05.087Z,61.11
2018-09-22T11:00:05.025Z,60.82
2018-09-22T11:01:04.966Z,61.24
2018-09-22T11:02:04.903Z,61.33
2018-09-22T11:03:04.847Z,61.52
2018-09-22T11:04:04.790Z,61.43
2018-09-22T11:05:04.727Z,60.75
2018-09-22T11:06:04.666Z,60.66
2018-09-22T11:07:04.607Z,61.24
2018-09-22T11:08:04.547Z,60.08
2018-09-22T11:09:04.490Z,60.18
2018-09-22T11:10:04.429Z,59.99
2018-09-22T11:11:04.369Z,59.22
2018-09-22T11:12:04.310Z,59.61
2018-09-22T11:13:04.252Z,58.74
2018-09-22T11:14:04.191Z,58.64
2018-09-22T11:15:04.132Z,59.70
2018-09-22T11:16:04.070Z,57.97
2018-09-22T11:17:04.011Z,58.17
2018-09-22T11:18:03.951Z,57.97
2018-09-22T11:19:03.890Z,57.97
2018-09-22T11:20:03.832Z,58.84
2018-09-22T11:21:03.773Z,58.94
2018-09-22T11:22:03.712Z,58.84
2018-09-22T11:23:03.653Z,58.84
2018-09-22T11:24:03.591Z,59.12
2018-09-22T11:25:03.532Z,58.64
2018-09-22T11:26:03.472Z,59.22
2018-09-22T11:27:03.474Z,59.22
2018-09-22T11:28:03.357Z,57.40
2018-09-22T11:29:03.295Z,57.30
2018-09-22T11:30:03.235Z,57.40
2018-09-22T11:31:03.175Z,56.82
2018-09-22T11:32:03.116Z,56.92
2018-09-22T11:33:03.056Z,55.67
2018-09-22T11:34:03.001Z,56.34
2018-09-22T11:35:02.935Z,56.79
2018-09-22T11:36:02.875Z,57.59
2018-09-22T11:37:02.816Z,57.37
2018-09-22T11:38:02.758Z,57.46
2018-09-22T11:39:02.699Z,57.28
2018-09-22T11:40:02.636Z,55.16
2018-09-22T11:41:02.580Z,56.73
2018-09-22T11:42:02.519Z,58.42
2018-09-22T11:43:02.460Z,58.71
2018-09-22T11:44:02.398Z,58.23
2018-09-22T11:45:02.339Z,58.71
2018-09-22T11:46:02.279Z,57.08
2018-09-22T11:47:02.217Z,57.28
2018-09-22T11:48:02.159Z,57.08
2018-09-22T11:49:02.101Z,54.49
2018-09-22T11:50:02.044Z,56.89
2018-09-22T11:51:01.980Z,56.41
2018-09-22T11:52:01.920Z,55.74
2018-09-22T11:53:01.859Z,55.93
2018-09-22T11:54:01.799Z,56.51
2018-09-22T11:55:01.737Z,56.48
2018-09-22T11:56:01.823Z,56.38
2018-09-22T11:57:01.622Z,56.57
2018-09-22T11:58:01.559Z,56.38
2018-09-22T11:59:01.497Z,57.15
2018-09-22T12:00:01.441Z,56.96
2018-09-22T12:01:01.380Z,56.57
2018-09-22T12:02:01.375Z,57.06
2018-09-22T12:03:01.258Z,57.34
2018-09-22T12:04:01.198Z,57.24
2018-09-22T12:05:01.139Z,56.67
2018-09-22T12:06:01.147Z,57.43
2018-09-22T12:07:01.016Z,56.96
2018-09-22T12:08:00.955Z,57.85
2018-09-22T12:09:00.896Z,57.56
2018-09-22T12:10:00.835Z,57.65
2018-09-22T12:11:00.777Z,57.85
2018-09-22T12:12:00.717Z,57.65
2018-09-22T12:13:00.657Z,57.37
2018-09-22T12:14:00.642Z,56.79
2018-09-22T12:15:00.537Z,57.65
2018-09-22T12:16:00.477Z,56.79
2018-09-22T12:17:00.413Z,54.58
2018-09-22T12:18:00.356Z,56.41
2018-09-22T12:19:00.293Z,57.95
2018-09-22T12:20:00.233Z,56.31
2018-09-22T12:21:00.176Z,57.65
2018-09-22T12:22:00.113Z,57.85
2018-09-22T12:23:00.052Z,57.75
2018-09-22T12:23:59.996Z,57.85
2018-09-22T12:24:59.932Z,57.46
2018-09-22T12:25:59.873Z,57.95
2018-09-22T12:26:59.810Z,58.14
2018-09-22T12:27:59.752Z,57.75
2018-09-22T12:28:59.692Z,57.28
2018-09-22T12:29:59.630Z,57.46
2018-09-22T12:30:59.570Z,59.00
2018-09-22T12:31:59.579Z,57.65
2018-09-22T12:32:59.449Z,56.60
2018-09-22T12:33:59.388Z,55.19
2018-09-22T12:34:59.329Z,54.68
2018-09-22T12:35:59.270Z,55.93
2018-09-22T12:36:59.210Z,56.51
2018-09-22T12:37:59.147Z,57.18
2018-09-22T12:38:59.090Z,57.56
2018-09-22T12:39:59.029Z,57.28
2018-09-22T12:40:58.967Z,58.04
2018-09-22T12:41:58.905Z,57.65
2018-09-22T12:42:58.850Z,58.23
2018-09-22T12:43:58.792Z,56.89
2018-09-22T12:44:58.729Z,56.12
2018-09-22T12:45:58.719Z,56.02
2018-09-22T12:46:58.608Z,56.53
2018-09-22T12:47:58.547Z,57.68
2018-09-22T12:48:58.486Z,57.78
2018-09-22T12:49:58.425Z,57.78
2018-09-22T12:50:58.364Z,57.88
2018-09-22T12:51:58.304Z,57.68